sensor_id;sensor_type;location;lat;lon;timestamp;pressure;altitude;pressure_sealevel;temperature;humidity
60240;BME280;46102;39.012;-7.064;2023-04-16T00:00:27;98757.19;;;17.84;41.24
60240;BME280;46102;39.012;-7.064;2023-04-16T00:02:28;98759.16;;;17.84;40.99
60240;BME280;46102;39.012;-7.064;2023-04-16T00:04:32;98758.38;;;17.83;40.87
60240;BME280;46102;39.012;-7.064;2023-04-16T00:06:32;98751.19;;;17.82;40.95
60240;BME280;46102;39.012;-7.064;2023-04-16T00:08:33;98759.59;;;17.86;41.24
60240;BME280;46102;39.012;-7.064;2023-04-16T00:10:35;98753.97;;;17.82;41.22
60240;BME280;46102;39.012;-7.064;2023-04-16T00:12:36;98751.34;;;17.74;41.41
60240;BME280;46102;39.012;-7.064;2023-04-16T00:14:37;98747.31;;;17.71;41.49
60240;BME280;46102;39.012;-7.064;2023-04-16T00:16:38;98747.16;;;17.64;41.88
60240;BME280;46102;39.012;-7.064;2023-04-16T00:18:39;98748.25;;;17.59;41.72
60240;BME280;46102;39.012;-7.064;2023-04-16T00:20:40;98744.66;;;17.59;41.97
60240;BME280;46102;39.012;-7.064;2023-04-16T00:22:42;98749.03;;;17.60;41.95
60240;BME280;46102;39.012;-7.064;2023-04-16T00:24:43;98750.56;;;17.57;42.01
60240;BME280;46102;39.012;-7.064;2023-04-16T00:26:43;98749.66;;;17.53;42.09
60240;BME280;46102;39.012;-7.064;2023-04-16T00:28:46;98744.41;;;17.48;42.26
60240;BME280;46102;39.012;-7.064;2023-04-16T00:30:46;98743.66;;;17.51;42.29
60240;BME280;46102;39.012;-7.064;2023-04-16T00:32:47;98741.28;;;17.50;42.26
60240;BME280;46102;39.012;-7.064;2023-04-16T00:34:48;98738.56;;;17.53;42.50
60240;BME280;46102;39.012;-7.064;2023-04-16T00:36:49;98745.28;;;17.52;42.52
60240;BME280;46102;39.012;-7.064;2023-04-16T00:38:50;98749.59;;;17.50;42.36
60240;BME280;46102;39.012;-7.064;2023-04-16T00:40:51;98743.31;;;17.53;42.58
60240;BME280;46102;39.012;-7.064;2023-04-16T00:42:51;98738.84;;;17.48;42.69
60240;BME280;46102;39.012;-7.064;2023-04-16T00:44:54;98742.31;;;17.45;42.93
60240;BME280;46102;39.012;-7.064;2023-04-16T00:46:56;98737.97;;;17.44;43.04
60240;BME280;46102;39.012;-7.064;2023-04-16T00:48:59;98733.66;;;17.46;43.01
60240;BME280;46102;39.012;-7.064;2023-04-16T00:51:03;98729.28;;;17.45;43.10
60240;BME280;46102;39.012;-7.064;2023-04-16T00:53:07;98727.75;;;17.48;43.03
60240;BME280;46102;39.012;-7.064;2023-04-16T00:55:08;98721.31;;;17.44;43.13
60240;BME280;46102;39.012;-7.064;2023-04-16T00:57:13;98715.41;;;17.45;43.17
60240;BME280;46102;39.012;-7.064;2023-04-16T00:59:14;98713.91;;;17.48;43.29
60240;BME280;46102;39.012;-7.064;2023-04-16T01:01:15;98714.78;;;17.52;43.14
60240;BME280;46102;39.012;-7.064;2023-04-16T01:03:16;98704.41;;;17.49;43.18
60240;BME280;46102;39.012;-7.064;2023-04-16T01:05:17;98703.94;;;17.47;43.22
60240;BME280;46102;39.012;-7.064;2023-04-16T01:07:17;98706.38;;;17.48;43.22
60240;BME280;46102;39.012;-7.064;2023-04-16T01:09:18;98704.31;;;17.45;43.30
60240;BME280;46102;39.012;-7.064;2023-04-16T01:11:19;98706.66;;;17.43;43.53
60240;BME280;46102;39.012;-7.064;2023-04-16T01:13:20;98694.31;;;17.41;43.63
60240;BME280;46102;39.012;-7.064;2023-04-16T01:15:21;98698.41;;;17.47;43.39
60240;BME280;46102;39.012;-7.064;2023-04-16T01:17:22;98697.31;;;17.52;43.52
60240;BME280;46102;39.012;-7.064;2023-04-16T01:19:22;98697.69;;;17.50;43.58
60240;BME280;46102;39.012;-7.064;2023-04-16T01:21:25;98693.69;;;17.47;43.59
60240;BME280;46102;39.012;-7.064;2023-04-16T01:23:26;98691.34;;;17.50;43.44
60240;BME280;46102;39.012;-7.064;2023-04-16T01:25:30;98690.91;;;17.47;43.52
60240;BME280;46102;39.012;-7.064;2023-04-16T01:27:30;98693.69;;;17.47;43.72
60240;BME280;46102;39.012;-7.064;2023-04-16T01:29:32;98686.88;;;17.45;43.49
60240;BME280;46102;39.012;-7.064;2023-04-16T01:31:34;98688.78;;;17.41;43.69
60240;BME280;46102;39.012;-7.064;2023-04-16T01:33:53;98692.78;;;17.43;43.71
60240;BME280;46102;39.012;-7.064;2023-04-16T01:35:54;98691.53;;;17.41;43.86
60240;BME280;46102;39.012;-7.064;2023-04-16T01:37:54;98691.00;;;17.35;43.96
60240;BME280;46102;39.012;-7.064;2023-04-16T01:39:55;98684.38;;;17.40;44.10
60240;BME280;46102;39.012;-7.064;2023-04-16T01:41:56;98691.53;;;17.41;44.20
60240;BME280;46102;39.012;-7.064;2023-04-16T01:43:57;98689.13;;;17.39;44.30
60240;BME280;46102;39.012;-7.064;2023-04-16T01:46:22;98683.13;;;17.37;44.23
60240;BME280;46102;39.012;-7.064;2023-04-16T01:48:24;98680.81;;;17.39;44.33
60240;BME280;46102;39.012;-7.064;2023-04-16T01:50:25;98687.88;;;17.37;44.47
60240;BME280;46102;39.012;-7.064;2023-04-16T01:52:26;98683.75;;;17.31;44.71
60240;BME280;46102;39.012;-7.064;2023-04-16T01:54:27;98682.16;;;17.30;44.59
60240;BME280;46102;39.012;-7.064;2023-04-16T01:56:28;98677.47;;;17.34;44.75
60240;BME280;46102;39.012;-7.064;2023-04-16T01:58:29;98681.78;;;17.31;44.72
60240;BME280;46102;39.012;-7.064;2023-04-16T02:00:30;98685.13;;;17.21;45.02
60240;BME280;46102;39.012;-7.064;2023-04-16T02:02:33;98685.47;;;17.19;45.08
60240;BME280;46102;39.012;-7.064;2023-04-16T02:04:34;98677.50;;;17.18;45.18
60240;BME280;46102;39.012;-7.064;2023-04-16T02:06:35;98679.84;;;17.16;45.37
60240;BME280;46102;39.012;-7.064;2023-04-16T02:08:36;98675.09;;;17.16;45.44
60240;BME280;46102;39.012;-7.064;2023-04-16T02:10:36;98673.75;;;17.10;45.60
60240;BME280;46102;39.012;-7.064;2023-04-16T02:12:38;98674.09;;;17.09;45.92
60240;BME280;46102;39.012;-7.064;2023-04-16T02:14:39;98671.78;;;17.11;45.83
60240;BME280;46102;39.012;-7.064;2023-04-16T02:16:40;98666.63;;;17.09;45.81
60240;BME280;46102;39.012;-7.064;2023-04-16T02:18:58;98670.81;;;17.03;45.94
60240;BME280;46102;39.012;-7.064;2023-04-16T02:21:02;98680.81;;;17.08;45.91
60240;BME280;46102;39.012;-7.064;2023-04-16T02:23:06;98676.19;;;17.12;45.90
60240;BME280;46102;39.012;-7.064;2023-04-16T02:25:07;98682.34;;;17.05;45.82
60240;BME280;46102;39.012;-7.064;2023-04-16T02:27:08;98683.94;;;17.06;46.06
60240;BME280;46102;39.012;-7.064;2023-04-16T02:29:09;98679.19;;;17.06;46.06
60240;BME280;46102;39.012;-7.064;2023-04-16T02:31:15;98683.59;;;17.08;46.15
60240;BME280;46102;39.012;-7.064;2023-04-16T02:33:19;98680.38;;;17.05;46.24
60240;BME280;46102;39.012;-7.064;2023-04-16T02:35:30;98684.38;;;17.08;46.14
60240;BME280;46102;39.012;-7.064;2023-04-16T02:37:33;98683.94;;;17.06;46.17
60240;BME280;46102;39.012;-7.064;2023-04-16T02:39:34;98676.81;;;17.05;45.93
60240;BME280;46102;39.012;-7.064;2023-04-16T02:41:34;98676.41;;;17.06;46.22
60240;BME280;46102;39.012;-7.064;2023-04-16T02:43:36;98675.63;;;17.06;45.96
60240;BME280;46102;39.012;-7.064;2023-04-16T02:45:38;98672.06;;;17.05;46.30
60240;BME280;46102;39.012;-7.064;2023-04-16T02:47:38;98686.19;;;17.00;46.27
60240;BME280;46102;39.012;-7.064;2023-04-16T02:49:39;98677.78;;;16.97;46.34
60240;BME280;46102;39.012;-7.064;2023-04-16T02:51:40;98674.09;;;16.93;46.53
60240;BME280;46102;39.012;-7.064;2023-04-16T02:53:41;98675.53;;;16.87;46.56
60240;BME280;46102;39.012;-7.064;2023-04-16T02:55:49;98673.47;;;16.83;46.93
60240;BME280;46102;39.012;-7.064;2023-04-16T02:57:52;98679.25;;;16.78;46.76
60240;BME280;46102;39.012;-7.064;2023-04-16T02:59:52;98670.06;;;16.90;46.56
60240;BME280;46102;39.012;-7.064;2023-04-16T03:01:53;98667.03;;;16.95;46.52
60240;BME280;46102;39.012;-7.064;2023-04-16T03:03:54;98674.47;;;16.91;46.50
60240;BME280;46102;39.012;-7.064;2023-04-16T03:05:55;98671.50;;;16.84;46.59
60240;BME280;46102;39.012;-7.064;2023-04-16T03:07:56;98663.19;;;16.84;46.29
60240;BME280;46102;39.012;-7.064;2023-04-16T03:09:57;98677.84;;;16.84;46.55
60240;BME280;46102;39.012;-7.064;2023-04-16T03:11:57;98679.00;;;16.83;46.48
60240;BME280;46102;39.012;-7.064;2023-04-16T03:13:58;98672.31;;;16.84;46.57
60240;BME280;46102;39.012;-7.064;2023-04-16T03:15:59;98665.94;;;16.84;46.52
60240;BME280;46102;39.012;-7.064;2023-04-16T03:18:00;98663.09;;;16.80;46.58
60240;BME280;46102;39.012;-7.064;2023-04-16T03:20:01;98671.06;;;16.82;46.47
60240;BME280;46102;39.012;-7.064;2023-04-16T03:22:01;98664.69;;;16.81;46.62
60240;BME280;46102;39.012;-7.064;2023-04-16T03:24:02;98664.94;;;16.76;46.36
60240;BME280;46102;39.012;-7.064;2023-04-16T03:26:03;98666.19;;;16.79;46.34
60240;BME280;46102;39.012;-7.064;2023-04-16T03:28:04;98657.88;;;16.79;46.18
60240;BME280;46102;39.012;-7.064;2023-04-16T03:30:07;98663.56;;;16.82;46.17
60240;BME280;46102;39.012;-7.064;2023-04-16T03:32:10;98652.47;;;16.82;46.27
60240;BME280;46102;39.012;-7.064;2023-04-16T03:34:12;98655.72;;;16.72;46.35
60240;BME280;46102;39.012;-7.064;2023-04-16T03:36:14;98656.34;;;16.65;46.48
60240;BME280;46102;39.012;-7.064;2023-04-16T03:38:15;98646.78;;;16.63;46.70
60240;BME280;46102;39.012;-7.064;2023-04-16T03:40:16;98651.25;;;16.68;46.49
60240;BME280;46102;39.012;-7.064;2023-04-16T03:42:17;98645.97;;;16.62;46.80
60240;BME280;46102;39.012;-7.064;2023-04-16T03:44:18;98650.09;;;16.53;46.70
60240;BME280;46102;39.012;-7.064;2023-04-16T03:46:19;98654.28;;;16.62;46.44
60240;BME280;46102;39.012;-7.064;2023-04-16T03:48:20;98660.91;;;16.58;46.62
60240;BME280;46102;39.012;-7.064;2023-04-16T03:50:21;98668.63;;;16.52;46.56
60240;BME280;46102;39.012;-7.064;2023-04-16T03:52:22;98658.94;;;16.58;46.39
60240;BME280;46102;39.012;-7.064;2023-04-16T03:54:23;98668.28;;;16.54;46.69
60240;BME280;46102;39.012;-7.064;2023-04-16T03:56:33;98666.69;;;16.53;46.71
60240;BME280;46102;39.012;-7.064;2023-04-16T03:58:34;98670.28;;;16.53;46.51
60240;BME280;46102;39.012;-7.064;2023-04-16T04:00:35;98669.81;;;16.51;46.64
60240;BME280;46102;39.012;-7.064;2023-04-16T04:02:45;98661.50;;;16.51;46.84
60240;BME280;46102;39.012;-7.064;2023-04-16T04:04:52;98665.88;;;16.52;46.81
60240;BME280;46102;39.012;-7.064;2023-04-16T04:06:52;98661.97;;;16.53;46.76
60240;BME280;46102;39.012;-7.064;2023-04-16T04:08:53;98662.19;;;16.48;46.81
60240;BME280;46102;39.012;-7.064;2023-04-16T04:10:54;98664.09;;;16.44;46.63
60240;BME280;46102;39.012;-7.064;2023-04-16T04:12:57;98658.78;;;16.39;46.65
60240;BME280;46102;39.012;-7.064;2023-04-16T04:14:57;98663.38;;;16.47;46.59
60240;BME280;46102;39.012;-7.064;2023-04-16T04:17:00;98660.75;;;16.38;46.97
60240;BME280;46102;39.012;-7.064;2023-04-16T04:19:01;98658.59;;;16.32;47.04
60240;BME280;46102;39.012;-7.064;2023-04-16T04:21:07;98657.00;;;16.31;47.08
60240;BME280;46102;39.012;-7.064;2023-04-16T04:23:08;98656.28;;;16.34;47.00
60240;BME280;46102;39.012;-7.064;2023-04-16T04:25:09;98657.78;;;16.31;46.94
60240;BME280;46102;39.012;-7.064;2023-04-16T04:27:10;98659.31;;;16.29;47.02
60240;BME280;46102;39.012;-7.064;2023-04-16T04:29:11;98663.31;;;16.31;47.19
60240;BME280;46102;39.012;-7.064;2023-04-16T04:31:12;98656.44;;;16.25;47.07
60240;BME280;46102;39.012;-7.064;2023-04-16T04:33:13;98656.09;;;16.27;46.95
60240;BME280;46102;39.012;-7.064;2023-04-16T04:35:15;98665.00;;;16.20;47.01
60240;BME280;46102;39.012;-7.064;2023-04-16T04:37:16;98667.88;;;16.23;47.19
60240;BME280;46102;39.012;-7.064;2023-04-16T04:39:18;98672.38;;;16.16;47.25
60240;BME280;46102;39.012;-7.064;2023-04-16T04:41:22;98680.00;;;16.19;46.93
60240;BME280;46102;39.012;-7.064;2023-04-16T04:43:23;98674.28;;;16.28;46.82
60240;BME280;46102;39.012;-7.064;2023-04-16T04:45:24;98681.59;;;16.20;46.89
60240;BME280;46102;39.012;-7.064;2023-04-16T04:47:27;98669.25;;;16.17;46.80
60240;BME280;46102;39.012;-7.064;2023-04-16T04:49:27;98674.22;;;16.12;46.92
60240;BME280;46102;39.012;-7.064;2023-04-16T04:51:30;98663.88;;;16.09;47.10
60240;BME280;46102;39.012;-7.064;2023-04-16T04:53:31;98673.78;;;16.10;47.08
60240;BME280;46102;39.012;-7.064;2023-04-16T04:55:32;98675.47;;;16.14;46.85
60240;BME280;46102;39.012;-7.064;2023-04-16T04:57:32;98671.13;;;16.13;46.85
60240;BME280;46102;39.012;-7.064;2023-04-16T04:59:33;98674.16;;;16.08;46.93
60240;BME280;46102;39.012;-7.064;2023-04-16T05:01:34;98674.00;;;16.17;47.03
60240;BME280;46102;39.012;-7.064;2023-04-16T05:03:35;98665.78;;;16.20;46.69
60240;BME280;46102;39.012;-7.064;2023-04-16T05:05:36;98672.63;;;16.11;46.98
60240;BME280;46102;39.012;-7.064;2023-04-16T05:07:37;98670.00;;;16.02;46.99
60240;BME280;46102;39.012;-7.064;2023-04-16T05:09:37;98676.59;;;15.97;47.21
60240;BME280;46102;39.012;-7.064;2023-04-16T05:11:40;98669.53;;;16.00;47.16
60240;BME280;46102;39.012;-7.064;2023-04-16T05:13:41;98683.28;;;15.96;47.16
60240;BME280;46102;39.012;-7.064;2023-04-16T05:15:42;98681.00;;;15.86;47.44
60240;BME280;46102;39.012;-7.064;2023-04-16T05:17:44;98681.91;;;15.90;47.48
60240;BME280;46102;39.012;-7.064;2023-04-16T05:19:45;98679.41;;;15.85;47.37
60240;BME280;46102;39.012;-7.064;2023-04-16T05:21:46;98688.97;;;15.88;47.28
60240;BME280;46102;39.012;-7.064;2023-04-16T05:23:47;98686.06;;;15.84;47.32
60240;BME280;46102;39.012;-7.064;2023-04-16T05:25:47;98689.16;;;15.82;47.45
60240;BME280;46102;39.012;-7.064;2023-04-16T05:27:48;98679.06;;;15.74;47.54
60240;BME280;46102;39.012;-7.064;2023-04-16T05:29:49;98679.75;;;15.84;47.56
60240;BME280;46102;39.012;-7.064;2023-04-16T05:31:50;98674.00;;;15.76;47.44
60240;BME280;46102;39.012;-7.064;2023-04-16T05:33:50;98685.50;;;15.66;47.65
60240;BME280;46102;39.012;-7.064;2023-04-16T05:35:51;98687.38;;;15.74;47.47
60240;BME280;46102;39.012;-7.064;2023-04-16T05:37:52;98689.09;;;15.79;47.49
60240;BME280;46102;39.012;-7.064;2023-04-16T05:39:53;98686.19;;;15.88;47.10
60240;BME280;46102;39.012;-7.064;2023-04-16T05:41:53;98686.56;;;15.74;47.16
60240;BME280;46102;39.012;-7.064;2023-04-16T05:43:54;98685.06;;;15.76;47.29
60240;BME280;46102;39.012;-7.064;2023-04-16T05:45:55;98685.84;;;15.77;47.23
60240;BME280;46102;39.012;-7.064;2023-04-16T05:47:56;98695.88;;;15.81;46.96
60240;BME280;46102;39.012;-7.064;2023-04-16T05:49:57;98686.06;;;15.84;46.94
60240;BME280;46102;39.012;-7.064;2023-04-16T05:51:58;98692.53;;;15.76;46.93
60240;BME280;46102;39.012;-7.064;2023-04-16T05:53:59;98695.06;;;15.81;46.84
60240;BME280;46102;39.012;-7.064;2023-04-16T05:55:59;98689.75;;;15.88;46.54
60240;BME280;46102;39.012;-7.064;2023-04-16T05:58:00;98690.56;;;15.89;46.58
60240;BME280;46102;39.012;-7.064;2023-04-16T06:00:04;98690.34;;;15.81;46.79
60240;BME280;46102;39.012;-7.064;2023-04-16T06:02:12;98699.19;;;15.87;46.46
60240;BME280;46102;39.012;-7.064;2023-04-16T06:04:13;98697.00;;;15.93;46.32
60240;BME280;46102;39.012;-7.064;2023-04-16T06:06:14;98701.59;;;16.01;46.23
60240;BME280;46102;39.012;-7.064;2023-04-16T06:08:14;98699.97;;;16.00;46.13
60240;BME280;46102;39.012;-7.064;2023-04-16T06:10:15;98699.84;;;16.09;45.93
60240;BME280;46102;39.012;-7.064;2023-04-16T06:12:16;98694.44;;;16.12;45.75
60240;BME280;46102;39.012;-7.064;2023-04-16T06:14:17;98703.31;;;16.06;46.00
60240;BME280;46102;39.012;-7.064;2023-04-16T06:16:18;98700.09;;;16.03;46.10
60240;BME280;46102;39.012;-7.064;2023-04-16T06:18:18;98708.41;;;16.03;46.04
60240;BME280;46102;39.012;-7.064;2023-04-16T06:20:19;98700.91;;;16.04;46.20
60240;BME280;46102;39.012;-7.064;2023-04-16T06:22:20;98706.19;;;16.09;45.94
60240;BME280;46102;39.012;-7.064;2023-04-16T06:24:21;98710.19;;;16.12;45.90
60240;BME280;46102;39.012;-7.064;2023-04-16T06:26:22;98705.34;;;16.21;45.78
60240;BME280;46102;39.012;-7.064;2023-04-16T06:28:22;98714.81;;;16.20;45.99
60240;BME280;46102;39.012;-7.064;2023-04-16T06:30:23;98711.13;;;16.16;46.07
60240;BME280;46102;39.012;-7.064;2023-04-16T06:32:24;98695.53;;;16.23;46.10
60240;BME280;46102;39.012;-7.064;2023-04-16T06:34:26;98704.66;;;16.24;45.97
60240;BME280;46102;39.012;-7.064;2023-04-16T06:36:27;98704.66;;;16.24;45.88
60240;BME280;46102;39.012;-7.064;2023-04-16T06:38:28;98702.69;;;16.24;46.01
60240;BME280;46102;39.012;-7.064;2023-04-16T06:40:29;98709.00;;;16.25;46.01
60240;BME280;46102;39.012;-7.064;2023-04-16T06:42:30;98711.97;;;16.32;45.95
60240;BME280;46102;39.012;-7.064;2023-04-16T06:44:31;98707.00;;;16.38;45.81
60240;BME280;46102;39.012;-7.064;2023-04-16T06:46:32;98709.19;;;16.44;45.67
60240;BME280;46102;39.012;-7.064;2023-04-16T06:48:32;98713.78;;;16.53;45.56
60240;BME280;46102;39.012;-7.064;2023-04-16T06:50:33;98717.19;;;16.62;45.34
60240;BME280;46102;39.012;-7.064;2023-04-16T06:52:34;98707.72;;;16.63;45.43
60240;BME280;46102;39.012;-7.064;2023-04-16T06:54:35;98712.63;;;16.70;45.21
60240;BME280;46102;39.012;-7.064;2023-04-16T06:56:36;98716.78;;;16.76;45.18
60240;BME280;46102;39.012;-7.064;2023-04-16T06:58:36;98722.72;;;16.90;44.89
60240;BME280;46102;39.012;-7.064;2023-04-16T07:00:37;98716.03;;;17.07;44.71
60240;BME280;46102;39.012;-7.064;2023-04-16T07:02:38;98716.56;;;17.28;44.23
60240;BME280;46102;39.012;-7.064;2023-04-16T07:04:39;98719.63;;;17.39;43.78
60240;BME280;46102;39.012;-7.064;2023-04-16T07:06:40;98727.47;;;17.53;43.83
60240;BME280;46102;39.012;-7.064;2023-04-16T07:08:40;98727.41;;;17.65;43.63
60240;BME280;46102;39.012;-7.064;2023-04-16T07:10:41;98733.75;;;17.82;43.09
60240;BME280;46102;39.012;-7.064;2023-04-16T07:12:42;98734.94;;;18.00;43.08
60240;BME280;46102;39.012;-7.064;2023-04-16T07:14:43;98730.59;;;18.19;42.64
60240;BME280;46102;39.012;-7.064;2023-04-16T07:16:44;98729.88;;;18.41;41.79
60240;BME280;46102;39.012;-7.064;2023-04-16T07:18:44;98726.56;;;18.55;41.51
60240;BME280;46102;39.012;-7.064;2023-04-16T07:20:45;98738.72;;;18.66;40.89
60240;BME280;46102;39.012;-7.064;2023-04-16T07:22:47;98735.94;;;18.86;40.76
60240;BME280;46102;39.012;-7.064;2023-04-16T07:24:47;98736.59;;;18.99;40.52
60240;BME280;46102;39.012;-7.064;2023-04-16T07:26:48;98745.13;;;19.09;40.08
60240;BME280;46102;39.012;-7.064;2023-04-16T07:28:49;98739.81;;;19.24;39.72
60240;BME280;46102;39.012;-7.064;2023-04-16T07:30:50;98743.22;;;19.37;39.54
60240;BME280;46102;39.012;-7.064;2023-04-16T07:32:51;98741.88;;;19.50;39.11
60240;BME280;46102;39.012;-7.064;2023-04-16T07:34:51;98745.56;;;19.58;38.58
60240;BME280;46102;39.012;-7.064;2023-04-16T07:36:52;98741.28;;;19.64;38.35
60240;BME280;46102;39.012;-7.064;2023-04-16T07:38:53;98751.88;;;19.78;38.33
60240;BME280;46102;39.012;-7.064;2023-04-16T07:40:54;98757.19;;;19.86;38.05
60240;BME280;46102;39.012;-7.064;2023-04-16T07:42:56;98756.59;;;20.00;37.65
60240;BME280;46102;39.012;-7.064;2023-04-16T07:44:56;98763.47;;;20.10;37.34
60240;BME280;46102;39.012;-7.064;2023-04-16T07:46:57;98766.84;;;20.23;37.20
60240;BME280;46102;39.012;-7.064;2023-04-16T07:48:58;98769.28;;;20.28;37.00
60240;BME280;46102;39.012;-7.064;2023-04-16T07:50:59;98768.66;;;20.38;36.97
60240;BME280;46102;39.012;-7.064;2023-04-16T07:53:00;98769.91;;;20.44;36.80
60240;BME280;46102;39.012;-7.064;2023-04-16T07:55:00;98770.41;;;20.53;36.61
60240;BME280;46102;39.012;-7.064;2023-04-16T07:57:01;98775.00;;;20.65;36.46
60240;BME280;46102;39.012;-7.064;2023-04-16T07:59:02;98783.16;;;20.81;36.11
60240;BME280;46102;39.012;-7.064;2023-04-16T08:01:03;98774.19;;;20.98;36.21
60240;BME280;46102;39.012;-7.064;2023-04-16T08:03:03;98777.91;;;21.10;35.85
60240;BME280;46102;39.012;-7.064;2023-04-16T08:05:04;98774.84;;;21.22;35.60
60240;BME280;46102;39.012;-7.064;2023-04-16T08:07:05;98778.53;;;21.33;35.85
60240;BME280;46102;39.012;-7.064;2023-04-16T08:09:06;98780.97;;;21.38;34.96
60240;BME280;46102;39.012;-7.064;2023-04-16T08:11:07;98785.47;;;21.50;34.85
60240;BME280;46102;39.012;-7.064;2023-04-16T08:13:08;98781.88;;;21.46;34.88
60240;BME280;46102;39.012;-7.064;2023-04-16T08:15:09;98773.16;;;21.51;35.03
60240;BME280;46102;39.012;-7.064;2023-04-16T08:17:16;98768.47;;;21.62;34.34
60240;BME280;46102;39.012;-7.064;2023-04-16T08:19:17;98775.50;;;21.49;34.39
60240;BME280;46102;39.012;-7.064;2023-04-16T08:21:17;98773.50;;;21.46;34.40
60240;BME280;46102;39.012;-7.064;2023-04-16T08:23:18;98771.56;;;21.54;34.70
60240;BME280;46102;39.012;-7.064;2023-04-16T08:25:19;98773.72;;;21.71;34.25
60240;BME280;46102;39.012;-7.064;2023-04-16T08:27:20;98774.16;;;21.77;34.21
60240;BME280;46102;39.012;-7.064;2023-04-16T08:29:21;98775.81;;;21.85;33.87
60240;BME280;46102;39.012;-7.064;2023-04-16T08:31:24;98778.81;;;21.62;34.08
60240;BME280;46102;39.012;-7.064;2023-04-16T08:33:25;98776.34;;;21.53;34.07
60240;BME280;46102;39.012;-7.064;2023-04-16T08:35:26;98777.94;;;21.54;34.53
60240;BME280;46102;39.012;-7.064;2023-04-16T08:37:27;98770.78;;;21.57;34.64
60240;BME280;46102;39.012;-7.064;2023-04-16T08:39:28;98767.38;;;21.78;34.27
60240;BME280;46102;39.012;-7.064;2023-04-16T08:41:31;98769.97;;;22.04;33.59
60240;BME280;46102;39.012;-7.064;2023-04-16T08:43:36;98766.59;;;22.36;33.18
60240;BME280;46102;39.012;-7.064;2023-04-16T08:45:37;98769.44;;;22.47;33.04
60240;BME280;46102;39.012;-7.064;2023-04-16T08:47:40;98765.75;;;22.29;32.85
60240;BME280;46102;39.012;-7.064;2023-04-16T08:49:42;98765.81;;;22.39;32.78
60240;BME280;46102;39.012;-7.064;2023-04-16T08:51:49;98766.19;;;22.34;32.35
60240;BME280;46102;39.012;-7.064;2023-04-16T08:53:52;98762.69;;;22.52;32.12
60240;BME280;46102;39.012;-7.064;2023-04-16T08:55:56;98765.91;;;22.64;31.92
60240;BME280;46102;39.012;-7.064;2023-04-16T08:58:00;98771.56;;;22.75;31.76
60240;BME280;46102;39.012;-7.064;2023-04-16T09:00:03;98768.78;;;22.79;31.33
60240;BME280;46102;39.012;-7.064;2023-04-16T09:02:06;98762.84;;;22.98;31.44
60240;BME280;46102;39.012;-7.064;2023-04-16T09:04:07;98761.28;;;23.04;31.33
60240;BME280;46102;39.012;-7.064;2023-04-16T09:06:08;98767.63;;;22.98;31.41
60240;BME280;46102;39.012;-7.064;2023-04-16T09:08:09;98766.81;;;22.94;31.13
60240;BME280;46102;39.012;-7.064;2023-04-16T09:10:10;98763.31;;;23.18;31.45
60240;BME280;46102;39.012;-7.064;2023-04-16T09:12:13;98764.94;;;23.48;30.92
60240;BME280;46102;39.012;-7.064;2023-04-16T09:14:14;98758.16;;;23.63;30.46
60240;BME280;46102;39.012;-7.064;2023-04-16T09:16:16;98768.16;;;23.46;30.98
60240;BME280;46102;39.012;-7.064;2023-04-16T09:18:16;98774.53;;;23.36;31.46
60240;BME280;46102;39.012;-7.064;2023-04-16T09:20:18;98765.34;;;23.36;31.39
60240;BME280;46102;39.012;-7.064;2023-04-16T09:22:19;98763.75;;;23.31;31.09
60240;BME280;46102;39.012;-7.064;2023-04-16T09:24:20;98771.69;;;23.07;31.20
60240;BME280;46102;39.012;-7.064;2023-04-16T09:26:21;98770.09;;;23.06;31.15
60240;BME280;46102;39.012;-7.064;2023-04-16T09:28:43;98769.31;;;23.06;31.03
60240;BME280;46102;39.012;-7.064;2023-04-16T09:30:44;98762.50;;;23.14;31.60
60240;BME280;46102;39.012;-7.064;2023-04-16T09:32:45;98762.16;;;23.37;31.28
60240;BME280;46102;39.012;-7.064;2023-04-16T09:34:57;98766.16;;;23.72;30.64
60240;BME280;46102;39.012;-7.064;2023-04-16T09:37:17;98761.78;;;23.89;29.93
60240;BME280;46102;39.012;-7.064;2023-04-16T09:39:18;98765.38;;;23.75;29.99
60240;BME280;46102;39.012;-7.064;2023-04-16T09:41:27;98757.78;;;24.01;29.90
60240;BME280;46102;39.012;-7.064;2023-04-16T09:43:28;98746.91;;;24.28;29.33
60240;BME280;46102;39.012;-7.064;2023-04-16T09:45:30;98759.69;;;24.36;29.26
60240;BME280;46102;39.012;-7.064;2023-04-16T09:49:40;98760.19;;;23.66;30.13
60240;BME280;46102;39.012;-7.064;2023-04-16T09:51:46;98747.78;;;23.53;30.56
60240;BME280;46102;39.012;-7.064;2023-04-16T09:53:50;98742.97;;;23.64;30.30
60240;BME280;46102;39.012;-7.064;2023-04-16T09:55:58;98743.34;;;24.09;30.09
60240;BME280;46102;39.012;-7.064;2023-04-16T09:58:00;98745.25;;;24.48;28.97
60240;BME280;46102;39.012;-7.064;2023-04-16T10:00:05;98739.19;;;24.61;29.04
60240;BME280;46102;39.012;-7.064;2023-04-16T10:02:07;98743.97;;;24.67;28.95
60240;BME280;46102;39.012;-7.064;2023-04-16T10:04:08;98747.25;;;24.41;29.58
60240;BME280;46102;39.012;-7.064;2023-04-16T10:06:17;98741.22;;;24.60;28.90
60240;BME280;46102;39.012;-7.064;2023-04-16T10:08:20;98742.44;;;24.59;29.35
60240;BME280;46102;39.012;-7.064;2023-04-16T10:10:21;98746.44;;;24.51;29.02
60240;BME280;46102;39.012;-7.064;2023-04-16T10:12:22;98743.22;;;24.60;29.17
60240;BME280;46102;39.012;-7.064;2023-04-16T10:14:22;98734.19;;;25.04;28.56
60240;BME280;46102;39.012;-7.064;2023-04-16T10:16:23;98718.56;;;25.55;27.70
60240;BME280;46102;39.012;-7.064;2023-04-16T10:18:25;98724.72;;;25.92;27.48
60240;BME280;46102;39.012;-7.064;2023-04-16T10:20:26;98733.56;;;25.90;27.36
60240;BME280;46102;39.012;-7.064;2023-04-16T10:22:27;98730.81;;;25.80;27.19
60240;BME280;46102;39.012;-7.064;2023-04-16T10:24:29;98727.34;;;25.65;27.76
60240;BME280;46102;39.012;-7.064;2023-04-16T10:26:31;98726.84;;;25.73;27.41
60240;BME280;46102;39.012;-7.064;2023-04-16T10:28:32;98726.69;;;25.95;26.45
60240;BME280;46102;39.012;-7.064;2023-04-16T10:30:35;98712.25;;;26.31;26.55
60240;BME280;46102;39.012;-7.064;2023-04-16T10:32:37;98720.22;;;26.70;26.44
60240;BME280;46102;39.012;-7.064;2023-04-16T10:34:38;98713.38;;;27.02;25.92
60240;BME280;46102;39.012;-7.064;2023-04-16T10:36:39;98722.63;;;27.30;25.41
60240;BME280;46102;39.012;-7.064;2023-04-16T10:38:44;98717.63;;;27.41;24.86